createdAt,value
2017-08-24T00:00:17.943Z,16.90
2017-08-24T00:01:17.938Z,17.20
2017-08-24T00:02:17.937Z,18.00
2017-08-24T00:03:17.931Z,18.70
2017-08-24T00:04:17.930Z,19.00
2017-08-24T00:05:17.925Z,16.70
2017-08-24T00:06:17.924Z,18.00
2017-08-24T00:07:17.918Z,17.10
2017-08-24T00:08:17.922Z,18.80
2017-08-24T00:09:17.919Z,16.90
2017-08-24T00:10:17.912Z,18.50
2017-08-24T00:11:17.912Z,17.00
2017-08-24T00:12:17.908Z,16.80
2017-08-24T00:13:17.902Z,19.20
2017-08-24T00:14:17.902Z,17.60
2017-08-24T00:15:17.898Z,16.90
2017-08-24T00:16:17.889Z,18.10
2017-08-24T00:17:17.887Z,18.60
2017-08-24T00:18:17.883Z,17.90
2017-08-24T00:19:17.882Z,18.30
2017-08-24T00:20:17.875Z,17.30
2017-08-24T00:21:17.876Z,18.60
2017-08-24T00:22:17.870Z,20.10
2017-08-24T00:23:17.868Z,19.30
2017-08-24T00:24:17.869Z,19.30
2017-08-24T00:25:17.864Z,19.60
2017-08-24T00:26:17.862Z,19.50
2017-08-24T00:27:17.858Z,19.30
2017-08-24T00:28:17.849Z,18.50
2017-08-24T00:29:17.848Z,19.50
2017-08-24T00:30:17.842Z,19.90
2017-08-24T00:31:17.842Z,18.00
2017-08-24T00:32:17.843Z,18.90
2017-08-24T00:33:17.837Z,18.60
2017-08-24T00:34:17.836Z,19.20
2017-08-24T00:35:17.832Z,18.90
2017-08-24T00:36:17.829Z,19.40
2017-08-24T00:37:17.824Z,18.40
2017-08-24T00:38:17.824Z,18.80
2017-08-24T00:39:17.819Z,19.00
2017-08-24T00:40:17.811Z,18.20
2017-08-24T00:41:17.810Z,18.20
2017-08-24T00:42:17.805Z,19.80
2017-08-24T00:43:17.804Z,20.60
2017-08-24T00:44:17.801Z,19.20
2017-08-24T00:45:17.797Z,18.20
2017-08-24T00:46:17.793Z,19.50
2017-08-24T00:47:17.789Z,20.10
2017-08-24T00:48:17.789Z,19.40
2017-08-24T00:49:17.789Z,21.80
2017-08-24T00:50:17.784Z,21.20
2017-08-24T00:51:17.781Z,21.20
2017-08-24T00:52:17.778Z,20.90
2017-08-24T00:53:17.777Z,21.90
2017-08-24T00:54:17.771Z,20.90
2017-08-24T00:55:17.770Z,19.60
2017-08-24T00:56:17.768Z,20.70
2017-08-24T00:57:17.758Z,21.50
2017-08-24T00:58:17.755Z,22.40
2017-08-24T00:59:17.753Z,21.20
2017-08-24T01:00:17.748Z,20.90
2017-08-24T01:01:17.748Z,21.80
2017-08-24T01:02:17.742Z,21.90
2017-08-24T01:03:17.740Z,21.80
2017-08-24T01:04:17.743Z,20.90
2017-08-24T01:05:17.737Z,21.10
2017-08-24T01:06:17.736Z,19.50
2017-08-24T01:07:17.731Z,20.00
2017-08-24T01:08:17.728Z,20.40
2017-08-24T01:09:17.725Z,22.00
2017-08-24T01:10:17.723Z,20.10
2017-08-24T01:11:17.719Z,21.70
2017-08-24T01:12:17.710Z,20.60
2017-08-24T01:13:17.710Z,22.90
2017-08-24T01:14:17.704Z,21.20
2017-08-24T01:15:17.705Z,20.00
2017-08-24T01:16:17.700Z,21.70
2017-08-24T01:17:17.695Z,20.70
2017-08-24T01:18:17.695Z,20.40
2017-08-24T01:19:17.690Z,22.40
2017-08-24T01:20:17.690Z,21.80
2017-08-24T01:21:17.693Z,22.00
2017-08-24T01:22:17.683Z,21.20
2017-08-24T01:23:17.683Z,23.60
2017-08-24T01:24:17.678Z,22.50
2017-08-24T01:25:17.676Z,21.70
2017-08-24T01:26:17.672Z,21.40
2017-08-24T01:27:17.670Z,23.20
2017-08-24T01:28:17.662Z,22.00
2017-08-24T01:29:17.658Z,21.10
2017-08-24T01:30:17.656Z,23.10
2017-08-24T01:31:17.652Z,19.90
2017-08-24T01:32:17.652Z,22.00
2017-08-24T01:33:17.650Z,20.80
2017-08-24T01:34:17.646Z,19.10
2017-08-24T01:35:17.645Z,19.20
2017-08-24T01:36:17.637Z,19.10
2017-08-24T01:37:17.633Z,20.20
2017-08-24T01:38:17.632Z,19.30
2017-08-24T01:39:17.627Z,17.80
2017-08-24T01:40:17.625Z,19.10
2017-08-24T01:41:17.619Z,18.10
2017-08-24T01:42:17.618Z,16.10
2017-08-24T01:43:17.612Z,16.90
2017-08-24T01:44:17.613Z,16.30
2017-08-24T01:45:17.612Z,15.20
2017-08-24T01:46:17.609Z,14.90
2017-08-24T01:47:17.606Z,15.20
2017-08-24T01:48:17.600Z,12.50
2017-08-24T01:49:17.598Z,12.20
2017-08-24T01:50:17.596Z,10.40
2017-08-24T01:51:17.592Z,10.70
2017-08-24T01:52:17.584Z,10.70
2017-08-24T01:53:17.582Z,10.30
2017-08-24T01:54:17.578Z,10.10
2017-08-24T01:55:17.577Z,10.00
2017-08-24T01:56:17.571Z,9.80
2017-08-24T01:57:17.569Z,9.30
2017-08-24T01:58:17.564Z,9.70
2017-08-24T01:59:17.563Z,9.00
2017-08-24T02:00:17.563Z,8.90
2017-08-24T02:01:17.558Z,9.50
2017-08-24T02:02:17.557Z,9.00
2017-08-24T02:03:17.553Z,9.00
2017-08-24T02:04:17.550Z,8.70
2017-08-24T02:05:17.546Z,9.30
2017-08-24T02:06:17.543Z,9.10
2017-08-24T02:07:17.541Z,9.10
2017-08-24T02:08:17.531Z,9.10
2017-08-24T02:09:17.525Z,9.00
2017-08-24T02:10:17.525Z,9.00
2017-08-24T02:11:17.521Z,8.80
2017-08-24T02:12:17.519Z,8.90
2017-08-24T02:13:17.512Z,8.80
2017-08-24T02:14:17.512Z,9.20
2017-08-24T02:15:17.506Z,9.10
2017-08-24T02:16:17.507Z,8.60
2017-08-24T02:17:17.509Z,8.80
2017-08-24T02:18:17.500Z,9.00
2017-08-24T02:19:17.501Z,8.90
2017-08-24T02:20:17.494Z,9.30
2017-08-24T02:21:17.490Z,8.70
2017-08-24T02:22:17.487Z,8.60
2017-08-24T02:23:17.482Z,9.20
2017-08-24T02:24:17.474Z,8.00
2017-08-24T02:25:17.473Z,8.00
2017-08-24T02:26:17.467Z,8.10
2017-08-24T02:27:17.467Z,8.20
2017-08-24T02:28:17.460Z,8.60
2017-08-24T02:29:17.458Z,8.40
2017-08-24T02:30:17.453Z,8.50
2017-08-24T02:31:17.453Z,8.50
2017-08-24T02:32:17.452Z,8.20
2017-08-24T02:33:17.447Z,8.60
2017-08-24T02:34:17.443Z,8.60
2017-08-24T02:35:17.438Z,8.60
2017-08-24T02:36:17.436Z,8.40
2017-08-24T02:37:17.427Z,8.00
2017-08-24T02:38:17.424Z,8.40
2017-08-24T02:39:17.419Z,7.90
2017-08-24T02:40:17.420Z,8.20
2017-08-24T02:41:17.418Z,8.20
2017-08-24T02:42:17.412Z,7.70
2017-08-24T02:43:17.410Z,8.30
2017-08-24T02:44:17.403Z,7.90
2017-08-24T02:45:17.401Z,8.70
2017-08-24T02:46:17.395Z,8.70
2017-08-24T02:47:17.394Z,8.20
2017-08-24T02:48:17.385Z,9.30
2017-08-24T02:49:17.383Z,9.50
2017-08-24T02:50:17.377Z,8.60
2017-08-24T02:51:17.373Z,9.60
2017-08-24T02:52:17.366Z,9.70
2017-08-24T02:53:17.364Z,9.90
2017-08-24T02:54:17.366Z,9.00
2017-08-24T02:55:17.356Z,10.70
2017-08-24T02:56:17.354Z,9.50
2017-08-24T02:57:17.349Z,9.60
2017-08-24T02:58:17.348Z,9.80
2017-08-24T02:59:17.342Z,10.10
2017-08-24T03:00:17.337Z,10.40
2017-08-24T03:01:17.332Z,9.90
2017-08-24T03:02:17.330Z,10.90
2017-08-24T03:03:17.323Z,10.50
2017-08-24T03:04:17.314Z,9.80
2017-08-24T03:05:17.313Z,9.50
2017-08-24T03:06:17.306Z,9.70
2017-08-24T03:07:17.306Z,10.30
2017-08-24T03:08:17.299Z,9.80
2017-08-24T03:09:17.293Z,10.30
2017-08-24T03:10:17.291Z,10.20
2017-08-24T03:11:17.285Z,10.40
2017-08-24T03:12:17.289Z,10.20
2017-08-24T03:13:17.282Z,10.70
2017-08-24T03:14:17.276Z,10.40
2017-08-24T03:15:17.273Z,10.80
2017-08-24T03:16:17.267Z,10.60
2017-08-24T03:17:17.266Z,11.10
2017-08-24T03:18:17.259Z,11.60
2017-08-24T03:19:17.255Z,11.80
2017-08-24T03:20:17.248Z,12.10
2017-08-24T03:21:17.241Z,12.40
2017-08-24T03:22:17.241Z,12.60
2017-08-24T03:23:17.235Z,11.70
2017-08-24T03:24:17.233Z,13.00
2017-08-24T03:25:17.225Z,12.70
2017-08-24T03:26:17.221Z,12.60
2017-08-24T03:27:17.218Z,13.30
2017-08-24T03:28:17.217Z,13.30
2017-08-24T03:29:17.211Z,12.80
2017-08-24T03:30:17.212Z,12.70
2017-08-24T03:31:17.202Z,12.90
2017-08-24T03:32:17.201Z,12.50
2017-08-24T03:33:17.194Z,12.70
2017-08-24T03:34:17.191Z,12.80
2017-08-24T03:35:17.185Z,12.20
2017-08-24T03:36:17.175Z,13.90
2017-08-24T03:37:17.174Z,12.50
2017-08-24T03:38:17.167Z,13.60
2017-08-24T03:39:17.164Z,13.70
2017-08-24T03:40:17.164Z,12.80
2017-08-24T03:41:17.159Z,14.00
2017-08-24T03:42:17.156Z,12.20
2017-08-24T03:43:17.148Z,12.40
2017-08-24T03:44:17.140Z,12.40
2017-08-24T03:45:17.138Z,11.90
2017-08-24T03:46:17.131Z,12.70
2017-08-24T03:47:17.131Z,12.40
2017-08-24T03:48:17.122Z,10.60
2017-08-24T03:49:17.119Z,13.10
2017-08-24T03:50:17.114Z,12.00
2017-08-24T03:51:17.110Z,12.70
2017-08-24T03:52:17.110Z,12.40
2017-08-24T03:53:17.103Z,12.70
2017-08-24T03:54:17.100Z,12.00
2017-08-24T03:55:17.095Z,11.10
2017-08-24T03:56:17.090Z,11.50
2017-08-24T03:57:17.087Z,11.40
2017-08-24T03:58:17.081Z,11.80
2017-08-24T03:59:17.079Z,12.20
2017-08-24T04:00:17.070Z,11.70
2017-08-24T04:01:17.063Z,11.90
2017-08-24T04:02:17.060Z,11.60
2017-08-24T04:03:17.055Z,11.50
2017-08-24T04:04:17.050Z,12.20
2017-08-24T04:05:17.045Z,11.10
2017-08-24T04:06:17.042Z,10.30
2017-08-24T04:07:17.037Z,11.60
2017-08-24T04:08:17.036Z,12.10
2017-08-24T04:09:17.033Z,10.90
2017-08-24T04:10:17.026Z,10.70
2017-08-24T04:11:17.024Z,11.60
2017-08-24T04:12:17.018Z,11.60
2017-08-24T04:13:17.013Z,11.40
2017-08-24T04:14:17.010Z,11.50
2017-08-24T04:15:17.004Z,11.30
2017-08-24T04:16:16.994Z,10.50
2017-08-24T04:17:16.991Z,11.00
2017-08-24T04:18:16.984Z,10.30
2017-08-24T04:19:16.981Z,11.20
2017-08-24T04:20:16.975Z,10.20
2017-08-24T04:21:16.977Z,10.50
2017-08-24T04:22:16.968Z,10.10
2017-08-24T04:23:16.964Z,10.50
2017-08-24T04:24:16.962Z,9.10
2017-08-24T04:25:16.957Z,9.80
2017-08-24T04:26:16.953Z,9.10
2017-08-24T04:27:16.947Z,9.60
2017-08-24T04:28:16.939Z,9.50
2017-08-24T04:29:16.942Z,9.40
2017-08-24T04:30:16.931Z,9.80
2017-08-24T04:31:16.928Z,9.90
2017-08-24T04:32:16.919Z,10.30
2017-08-24T04:33:16.913Z,10.70
2017-08-24T04:34:16.912Z,10.00
2017-08-24T04:35:16.902Z,10.10
2017-08-24T04:36:16.898Z,9.50
2017-08-24T04:37:16.895Z,8.70
2017-08-24T04:38:16.890Z,9.60
2017-08-24T04:39:16.882Z,9.80
2017-08-24T04:40:16.881Z,10.10
2017-08-24T04:41:16.877Z,11.30
2017-08-24T04:42:16.872Z,10.40
2017-08-24T04:43:16.868Z,9.50
2017-08-24T04:44:16.859Z,10.80
2017-08-24T04:45:16.852Z,9.20
2017-08-24T04:46:16.848Z,11.00
2017-08-24T04:47:16.843Z,10.50
2017-08-24T04:48:16.840Z,9.70
2017-08-24T04:49:16.842Z,10.60
2017-08-24T04:50:16.832Z,10.40
2017-08-24T04:51:16.829Z,11.60
2017-08-24T04:52:16.820Z,10.50
2017-08-24T04:53:16.817Z,10.70
2017-08-24T04:54:16.811Z,10.00
2017-08-24T04:55:16.807Z,10.50
2017-08-24T04:56:16.798Z,11.20
2017-08-24T04:57:16.792Z,10.20
2017-08-24T04:58:16.791Z,10.10
2017-08-24T04:59:16.783Z,10.60
2017-08-24T05:00:16.777Z,11.00
2017-08-24T05:01:16.778Z,11.00
2017-08-24T05:02:16.767Z,11.40
2017-08-24T05:03:16.764Z,11.60
2017-08-24T05:04:16.764Z,10.60
2017-08-24T05:05:16.756Z,11.10
2017-08-24T05:06:16.758Z,12.20
2017-08-24T05:07:16.748Z,11.40
2017-08-24T05:08:16.744Z,11.10
2017-08-24T05:09:16.738Z,11.20
2017-08-24T05:10:16.735Z,11.00
2017-08-24T05:11:16.728Z,11.40
2017-08-24T05:12:16.719Z,10.70
2017-08-24T05:13:16.716Z,10.60
2017-08-24T05:14:16.709Z,9.70
2017-08-24T05:15:16.706Z,11.10
2017-08-24T05:16:16.701Z,12.20
2017-08-24T05:17:16.695Z,11.50
2017-08-24T05:18:16.692Z,10.30
2017-08-24T05:19:16.686Z,11.60
2017-08-24T05:20:16.689Z,11.00
2017-08-24T05:21:16.682Z,11.10
2017-08-24T05:22:16.675Z,10.50
2017-08-24T05:23:16.671Z,10.80
2017-08-24T05:24:16.667Z,10.40
2017-08-24T05:25:16.661Z,10.00
2017-08-24T05:26:16.654Z,10.30
2017-08-24T05:27:16.653Z,9.80
2017-08-24T05:28:16.642Z,10.50
2017-08-24T05:29:16.636Z,10.70
2017-08-24T05:30:16.634Z,10.10
2017-08-24T05:31:16.627Z,11.10
2017-08-24T05:32:16.621Z,11.30
2017-08-24T05:33:16.618Z,12.30
2017-08-24T05:34:16.613Z,11.40
2017-08-24T05:35:16.610Z,11.40
2017-08-24T05:36:16.609Z,10.70
2017-08-24T05:37:16.602Z,9.70
2017-08-24T05:38:16.601Z,10.60
2017-08-24T05:39:16.594Z,10.40
2017-08-24T05:40:16.590Z,11.70
2017-08-24T05:41:16.583Z,10.20
2017-08-24T05:42:16.581Z,10.80
2017-08-24T05:43:16.575Z,11.10
2017-08-24T05:44:16.564Z,11.10
2017-08-24T05:45:16.565Z,12.30
2017-08-24T05:46:16.557Z,10.50
2017-08-24T05:47:16.554Z,11.40
2017-08-24T05:48:16.554Z,11.60
2017-08-24T05:49:16.547Z,11.90
2017-08-24T05:50:16.544Z,10.60
2017-08-24T05:51:16.539Z,11.80
2017-08-24T05:52:16.528Z,11.60
2017-08-24T05:53:16.526Z,12.00
2017-08-24T05:54:16.520Z,12.00
2017-08-24T05:55:16.519Z,12.30
2017-08-24T05:56:16.512Z,12.20
2017-08-24T05:57:16.509Z,12.20
2017-08-24T05:58:16.503Z,11.50
2017-08-24T05:59:16.502Z,12.50
2017-08-24T06:00:16.501Z,12.00
2017-08-24T06:01:16.495Z,11.80
2017-08-24T06:02:16.493Z,12.50
2017-08-24T06:03:16.487Z,13.50
2017-08-24T06:04:16.482Z,13.10
2017-08-24T06:05:16.481Z,11.90
2017-08-24T06:06:16.475Z,13.40
2017-08-24T06:07:16.477Z,12.60
2017-08-24T06:08:16.463Z,12.30
2017-08-24T06:09:16.458Z,12.30
2017-08-24T06:10:16.457Z,11.20
2017-08-24T06:11:16.451Z,12.80
2017-08-24T06:12:16.448Z,12.60
2017-08-24T06:13:16.441Z,11.80
2017-08-24T06:14:16.441Z,12.80
2017-08-24T06:15:16.435Z,12.30
2017-08-24T06:16:16.433Z,12.30
2017-08-24T06:17:16.432Z,11.80
2017-08-24T06:18:16.427Z,12.30
2017-08-24T06:19:16.425Z,12.40
2017-08-24T06:20:16.419Z,12.00
2017-08-24T06:21:16.413Z,11.60
2017-08-24T06:22:16.412Z,11.80
2017-08-24T06:23:16.442Z,12.50
2017-08-24T06:24:16.396Z,12.40
2017-08-24T06:25:16.395Z,12.90
2017-08-24T06:26:16.389Z,11.10
2017-08-24T06:27:16.389Z,10.60
2017-08-24T06:28:16.381Z,12.70
2017-08-24T06:29:16.380Z,12.90
2017-08-24T06:30:16.374Z,11.50
2017-08-24T06:31:16.373Z,13.00
2017-08-24T06:32:16.372Z,11.00
2017-08-24T06:33:16.366Z,12.90
2017-08-24T06:34:16.365Z,12.40
2017-08-24T06:35:16.360Z,12.00
2017-08-24T06:36:16.354Z,11.70
2017-08-24T06:37:16.353Z,13.30
2017-08-24T06:38:16.347Z,13.10
2017-08-24T06:39:16.346Z,13.10
2017-08-24T06:40:16.344Z,12.90
2017-08-24T06:41:16.331Z,12.60
2017-08-24T06:42:16.332Z,12.80
2017-08-24T06:43:16.326Z,13.70
2017-08-24T06:44:16.325Z,15.10
2017-08-24T06:45:16.321Z,15.30
2017-08-24T06:46:16.325Z,15.40
2017-08-24T06:47:16.314Z,15.40
2017-08-24T06:48:16.315Z,13.90
2017-08-24T06:49:16.316Z,14.90
2017-08-24T06:50:16.311Z,14.10
2017-08-24T06:51:16.311Z,14.30
2017-08-24T06:52:16.306Z,14.80
2017-08-24T06:53:16.306Z,14.80
2017-08-24T06:54:16.301Z,14.40
2017-08-24T06:55:16.301Z,15.40
2017-08-24T06:56:16.294Z,14.90
2017-08-24T06:57:16.289Z,14.50
2017-08-24T06:58:16.289Z,14.40
2017-08-24T06:59:16.284Z,13.80
2017-08-24T07:00:16.285Z,14.30
2017-08-24T07:01:16.288Z,14.00
2017-08-24T07:02:16.279Z,14.20
2017-08-24T07:03:16.277Z,14.40
2017-08-24T07:04:16.281Z,14.40
2017-08-24T07:05:16.278Z,14.70
2017-08-24T07:06:16.276Z,14.00
2017-08-24T07:07:16.274Z,15.10
2017-08-24T07:08:16.270Z,14.40
2017-08-24T07:09:16.266Z,13.60
2017-08-24T07:10:16.266Z,15.10
2017-08-24T07:11:16.262Z,14.00
2017-08-24T07:12:16.255Z,15.60
2017-08-24T07:13:16.255Z,14.10
2017-08-24T07:14:16.251Z,15.10
2017-08-24T07:15:16.250Z,14.10
2017-08-24T07:16:16.245Z,13.90
2017-08-24T07:17:16.246Z,14.80
2017-08-24T07:18:16.242Z,13.80
2017-08-24T07:19:16.242Z,14.50
2017-08-24T07:20:16.242Z,13.80
2017-08-24T07:21:16.238Z,14.70
2017-08-24T07:22:16.239Z,15.90
2017-08-24T07:23:16.234Z,14.90
2017-08-24T07:25:16.251Z,15.80
2017-08-24T07:26:16.230Z,14.10
2017-08-24T07:27:16.225Z,14.20
2017-08-24T07:28:16.224Z,13.70
2017-08-24T07:29:16.218Z,15.80
2017-08-24T07:30:16.217Z,15.30
2017-08-24T07:31:16.215Z,15.00
2017-08-24T07:32:16.211Z,15.50
2017-08-24T07:33:16.211Z,15.60
2017-08-24T07:34:16.206Z,13.90
2017-08-24T07:35:16.207Z,15.50
2017-08-24T07:36:16.203Z,14.30
2017-08-24T07:37:16.205Z,13.80
2017-08-24T07:38:16.205Z,13.90
2017-08-24T07:39:16.202Z,15.30
2017-08-24T07:40:16.201Z,16.20
2017-08-24T07:41:16.200Z,14.30
2017-08-24T07:42:16.197Z,16.20
2017-08-24T07:43:16.210Z,16.90
2017-08-24T07:44:16.195Z,16.50
2017-08-24T07:45:16.188Z,16.50
2017-08-24T07:46:16.189Z,16.40
2017-08-24T07:47:16.311Z,16.80
2017-08-24T07:48:16.339Z,15.40
2017-08-24T07:49:16.289Z,15.20
2017-08-24T07:50:16.181Z,15.80
2017-08-24T07:51:16.178Z,15.60
2017-08-24T07:52:16.178Z,17.20
2017-08-24T07:53:16.181Z,16.80
2017-08-24T07:54:16.177Z,15.80
2017-08-24T07:55:16.179Z,16.40
2017-08-24T07:56:16.174Z,16.70
2017-08-24T07:57:16.168Z,17.30
2017-08-24T07:58:16.171Z,16.90
2017-08-24T07:59:16.165Z,15.70
2017-08-24T08:00:16.165Z,16.10
2017-08-24T08:01:16.167Z,17.80
2017-08-24T08:02:16.164Z,17.80
2017-08-24T08:03:16.170Z,16.00
2017-08-24T08:04:16.160Z,17.40
2017-08-24T08:05:16.160Z,15.00
2017-08-24T08:06:16.156Z,16.20
2017-08-24T08:07:16.157Z,17.60
2017-08-24T08:08:16.159Z,16.00
2017-08-24T08:09:16.147Z,16.80
2017-08-24T08:10:16.148Z,15.70
2017-08-24T08:11:16.146Z,15.30
2017-08-24T08:12:16.146Z,16.30
2017-08-24T08:13:16.145Z,16.10
2017-08-24T08:14:16.142Z,16.50
2017-08-24T08:15:16.142Z,17.20
2017-08-24T08:16:16.143Z,17.60
2017-08-24T08:17:16.144Z,18.00
2017-08-24T08:18:16.145Z,17.40
2017-08-24T08:19:16.143Z,17.40
2017-08-24T08:20:16.143Z,16.90
2017-08-24T08:22:16.143Z,18.00
2017-08-24T08:23:16.144Z,17.10
2017-08-24T08:24:16.140Z,16.60
2017-08-24T08:25:16.144Z,16.10
2017-08-24T08:26:16.143Z,16.00
2017-08-24T08:28:16.138Z,16.90
2017-08-24T08:29:16.141Z,17.60
2017-08-24T08:30:16.139Z,17.00
2017-08-24T08:32:16.141Z,15.80
2017-08-24T08:33:16.143Z,17.30
2017-08-24T08:34:16.141Z,17.40
2017-08-24T08:35:16.149Z,17.70
2017-08-24T08:36:16.149Z,18.20
2017-08-24T08:37:16.148Z,17.60
2017-08-24T08:38:16.150Z,17.60
2017-08-24T08:39:16.147Z,18.00
2017-08-24T08:40:16.150Z,18.40
2017-08-24T08:41:16.148Z,18.10
2017-08-24T08:42:16.151Z,19.00
2017-08-24T08:43:16.152Z,17.80
2017-08-24T08:44:16.145Z,18.80
2017-08-24T08:45:16.148Z,18.10
2017-08-24T08:46:16.146Z,18.20
2017-08-24T08:47:16.148Z,18.10
2017-08-24T08:48:16.148Z,18.40
2017-08-24T08:49:16.145Z,19.40
2017-08-24T08:50:16.151Z,17.80
2017-08-24T08:52:16.146Z,19.60
2017-08-24T08:53:16.150Z,18.80
2017-08-24T08:54:16.151Z,18.50
2017-08-24T08:55:16.149Z,18.60
2017-08-24T08:56:16.150Z,17.30
2017-08-24T08:57:16.147Z,18.30
2017-08-24T08:58:16.149Z,18.70
2017-08-24T08:59:16.147Z,17.60
2017-08-24T09:00:16.148Z,19.00
2017-08-24T09:01:16.142Z,18.40
2017-08-24T09:02:16.141Z,18.10
2017-08-24T09:03:16.149Z,18.60
2017-08-24T09:04:16.139Z,17.00
2017-08-24T09:05:16.143Z,17.40
2017-08-24T09:06:16.144Z,18.60
2017-08-24T09:07:16.143Z,17.70
2017-08-24T09:08:16.146Z,17.20
2017-08-24T09:09:16.138Z,18.20
2017-08-24T09:10:16.136Z,18.30
2017-08-24T09:11:16.139Z,18.00
2017-08-24T09:12:16.134Z,19.30
2017-08-24T09:13:16.137Z,19.70
2017-08-24T09:14:16.135Z,17.10
2017-08-24T09:15:16.138Z,17.90
2017-08-24T09:16:16.134Z,19.20
2017-08-24T09:17:16.138Z,18.60
2017-08-24T09:18:16.140Z,17.50
2017-08-24T09:19:16.138Z,16.50
2017-08-24T09:20:16.142Z,18.30
2017-08-24T09:21:16.141Z,17.50
2017-08-24T09:22:16.138Z,18.80
2017-08-24T09:23:16.140Z,17.50
2017-08-24T09:24:16.137Z,17.80
2017-08-24T09:25:16.131Z,17.80
2017-08-24T09:26:16.135Z,17.60
2017-08-24T09:27:16.134Z,18.00
2017-08-24T09:28:16.136Z,16.50
2017-08-24T09:29:16.134Z,15.60
2017-08-24T09:30:16.138Z,15.10
2017-08-24T09:31:16.137Z,15.70
2017-08-24T09:32:16.140Z,15.10
2017-08-24T09:33:16.149Z,15.20
2017-08-24T09:34:16.147Z,16.50
2017-08-24T09:35:16.150Z,17.50
2017-08-24T09:36:16.149Z,17.50
2017-08-24T09:37:16.151Z,14.70
2017-08-24T09:38:16.156Z,16.30
2017-08-24T09:39:16.158Z,15.50
2017-08-24T09:40:16.161Z,14.60
2017-08-24T09:41:16.166Z,15.60
2017-08-24T09:42:16.166Z,14.70
2017-08-24T09:43:16.167Z,15.10
2017-08-24T09:44:16.171Z,15.20
2017-08-24T09:45:16.173Z,15.80
2017-08-24T09:46:16.175Z,16.30
2017-08-24T09:47:16.180Z,15.30
2017-08-24T09:48:16.182Z,14.50
2017-08-24T09:49:16.190Z,15.00
2017-08-24T09:50:16.195Z,16.10
2017-08-24T09:51:16.198Z,15.00
2017-08-24T09:52:16.203Z,15.00
2017-08-24T09:53:16.206Z,14.30
2017-08-24T09:54:16.208Z,13.10
2017-08-24T09:55:16.215Z,14.30
2017-08-24T09:56:16.217Z,13.80
2017-08-24T09:57:16.218Z,14.60
2017-08-24T09:58:16.250Z,14.80
2017-08-24T09:59:16.229Z,15.40
2017-08-24T10:00:16.234Z,14.00
2017-08-24T10:01:16.238Z,14.50
2017-08-24T10:02:16.246Z,14.00
2017-08-24T10:03:16.249Z,13.30
2017-08-24T10:04:16.256Z,13.20
2017-08-24T10:05:16.266Z,12.90
2017-08-24T10:06:16.272Z,12.20
2017-08-24T10:07:16.281Z,12.10
2017-08-24T10:08:16.283Z,10.90
2017-08-24T10:09:16.290Z,10.30
2017-08-24T10:10:16.297Z,10.70
2017-08-24T10:11:16.303Z,11.30
2017-08-24T10:12:16.311Z,10.90
2017-08-24T10:13:16.325Z,10.40
2017-08-24T10:14:16.332Z,9.60
2017-08-24T10:15:16.344Z,9.90
2017-08-24T10:16:16.350Z,9.60
2017-08-24T10:17:16.362Z,9.50
2017-08-24T10:18:16.371Z,9.40
2017-08-24T10:19:16.385Z,8.90
2017-08-24T10:20:16.393Z,8.90
2017-08-24T10:21:16.401Z,8.50
2017-08-24T10:22:16.415Z,7.50
2017-08-24T10:23:16.424Z,8.30
2017-08-24T10:24:16.437Z,8.40
2017-08-24T10:25:16.452Z,9.00
2017-08-24T10:26:16.461Z,9.80
2017-08-24T10:27:16.476Z,8.50
2017-08-24T10:28:16.485Z,8.60
2017-08-24T10:29:16.502Z,9.00
2017-08-24T10:30:16.546Z,9.10
2017-08-24T10:31:16.601Z,10.10
2017-08-24T10:32:16.542Z,9.50
2017-08-24T10:33:16.552Z,10.20
2017-08-24T10:34:16.566Z,10.90
2017-08-24T10:35:16.577Z,10.40
2017-08-24T10:36:16.590Z,11.50
2017-08-24T10:37:16.602Z,11.70
2017-08-24T10:38:16.609Z,11.80
2017-08-24T10:39:16.622Z,11.80
2017-08-24T10:40:16.629Z,12.10
2017-08-24T10:41:16.641Z,11.40
2017-08-24T10:42:16.654Z,10.90
2017-08-24T10:43:16.664Z,10.80
2017-08-24T10:44:16.675Z,11.80
2017-08-24T10:45:16.691Z,11.80
2017-08-24T10:46:16.700Z,11.30
2017-08-24T10:47:16.713Z,12.00
2017-08-24T10:48:16.721Z,12.30
2017-08-24T10:49:16.732Z,12.40
2017-08-24T10:50:16.742Z,12.90
2017-08-24T10:51:16.754Z,13.20
2017-08-24T10:52:16.762Z,12.50
2017-08-24T10:53:16.768Z,12.30
2017-08-24T10:54:16.778Z,13.00
2017-08-24T10:55:16.786Z,12.30
2017-08-24T10:56:16.798Z,12.50
2017-08-24T10:57:16.808Z,12.50
2017-08-24T10:58:16.814Z,12.60
2017-08-24T10:59:16.829Z,12.90
2017-08-24T11:00:16.833Z,13.00
2017-08-24T11:01:16.847Z,13.40
2017-08-24T11:02:16.859Z,14.00
2017-08-24T11:03:16.865Z,12.70
2017-08-24T11:04:16.876Z,13.60
2017-08-24T11:05:16.881Z,13.80
2017-08-24T11:06:16.896Z,12.90
2017-08-24T11:07:16.899Z,13.70
2017-08-24T11:08:16.918Z,12.40
2017-08-24T11:09:16.912Z,13.20
2017-08-24T11:10:16.919Z,13.70
2017-08-24T11:11:16.958Z,13.40
2017-08-24T11:12:16.940Z,11.40
2017-08-24T11:13:16.943Z,12.70
2017-08-24T11:14:16.954Z,11.60
2017-08-24T11:15:16.961Z,12.50
2017-08-24T11:16:16.973Z,12.80
2017-08-24T11:17:16.986Z,12.20
2017-08-24T11:18:16.994Z,11.80
2017-08-24T11:19:17.007Z,11.80
2017-08-24T11:20:17.016Z,11.80
2017-08-24T11:21:17.028Z,12.20
2017-08-24T11:22:17.037Z,12.00
2017-08-24T11:23:17.049Z,11.70
2017-08-24T11:24:17.059Z,11.90
2017-08-24T11:25:17.066Z,11.50
2017-08-24T11:26:17.088Z,11.90
2017-08-24T11:27:17.089Z,10.70
2017-08-24T11:28:17.100Z,11.90
2017-08-24T11:29:17.112Z,12.00
2017-08-24T11:30:17.122Z,11.80
2017-08-24T11:31:17.142Z,12.60
2017-08-24T11:32:17.141Z,13.60
2017-08-24T11:33:17.157Z,11.80
2017-08-24T11:34:17.179Z,12.80
2017-08-24T11:35:17.179Z,13.60
2017-08-24T11:36:17.189Z,15.00
2017-08-24T11:37:17.197Z,14.10
2017-08-24T11:38:17.207Z,14.30
2017-08-24T11:39:17.214Z,14.50
2017-08-24T11:40:17.223Z,14.70
2017-08-24T11:41:17.227Z,14.20
2017-08-24T11:42:17.232Z,14.60
2017-08-24T11:43:17.244Z,14.40
2017-08-24T11:44:17.247Z,14.60
2017-08-24T11:45:17.291Z,14.40
2017-08-24T11:46:17.298Z,14.30
2017-08-24T11:47:17.270Z,13.10
2017-08-24T11:48:17.278Z,13.10
2017-08-24T11:49:17.289Z,14.70
2017-08-24T11:50:17.294Z,14.30
2017-08-24T11:51:17.300Z,14.20
2017-08-24T11:52:17.307Z,14.10
2017-08-24T11:53:17.312Z,15.20
2017-08-24T11:54:17.322Z,13.40
2017-08-24T11:55:17.324Z,15.10
2017-08-24T11:56:17.335Z,13.90
2017-08-24T11:57:17.329Z,14.20
2017-08-24T11:58:17.335Z,14.50
2017-08-24T11:59:17.340Z,15.20
2017-08-24T12:00:17.345Z,15.80
2017-08-24T12:01:17.350Z,15.70
2017-08-24T12:02:17.353Z,15.10
2017-08-24T12:03:17.360Z,15.30
2017-08-24T12:04:17.362Z,15.30
2017-08-24T12:05:17.370Z,14.50
2017-08-24T12:06:17.378Z,13.90
2017-08-24T12:07:17.381Z,13.70
2017-08-24T12:08:17.384Z,14.20
2017-08-24T12:09:17.387Z,15.10
2017-08-24T12:10:17.395Z,14.30
2017-08-24T12:11:17.399Z,14.10
2017-08-24T12:12:17.402Z,13.90
2017-08-24T12:13:17.403Z,14.60
2017-08-24T12:14:17.405Z,14.40
2017-08-24T12:15:17.413Z,14.10
2017-08-24T12:16:17.413Z,14.80
2017-08-24T12:17:17.422Z,14.00
2017-08-24T12:18:17.428Z,14.50
2017-08-24T12:19:17.438Z,15.60
2017-08-24T12:20:17.435Z,14.30
2017-08-24T12:21:17.434Z,14.80
2017-08-24T12:22:17.436Z,15.70
2017-08-24T12:23:17.444Z,14.60
2017-08-24T12:24:17.444Z,14.50
2017-08-24T12:25:17.449Z,13.70
2017-08-24T12:26:17.451Z,14.20
2017-08-24T12:27:17.457Z,14.10
2017-08-24T12:28:17.458Z,14.40
2017-08-24T12:29:17.464Z,15.20
2017-08-24T12:30:17.471Z,15.50
2017-08-24T12:31:17.472Z,13.90
2017-08-24T12:32:17.477Z,14.30
2017-08-24T12:33:17.484Z,14.50
2017-08-24T12:34:17.482Z,14.40
2017-08-24T12:35:17.487Z,14.10
2017-08-24T12:36:17.488Z,14.50
2017-08-24T12:37:17.489Z,15.10
2017-08-24T12:38:17.493Z,14.00
2017-08-24T12:39:17.493Z,13.60
2017-08-24T12:40:17.512Z,14.70
2017-08-24T12:41:17.499Z,15.00
2017-08-24T12:42:17.504Z,15.20
2017-08-24T12:43:17.505Z,15.00
2017-08-24T12:44:17.509Z,13.70
2017-08-24T12:45:17.517Z,14.50
2017-08-24T12:46:17.518Z,14.20
2017-08-24T12:47:17.522Z,13.80
2017-08-24T12:48:17.522Z,15.20
2017-08-24T12:49:17.527Z,13.50
2017-08-24T12:50:17.530Z,14.20
2017-08-24T12:51:17.531Z,14.20
2017-08-24T12:52:17.535Z,14.00
2017-08-24T12:53:17.533Z,14.30
2017-08-24T12:54:17.534Z,14.50
2017-08-24T12:55:17.537Z,13.80
2017-08-24T12:56:17.537Z,14.30
2017-08-24T12:57:17.542Z,14.70
2017-08-24T12:58:17.543Z,14.00
2017-08-24T12:59:17.547Z,14.00
2017-08-24T13:00:17.546Z,14.00
2017-08-24T13:01:17.553Z,15.10